createdAt,value
2018-03-26T00:00:48.096Z,175
2018-03-26T00:01:55.028Z,175
2018-03-26T00:03:01.958Z,175
2018-03-26T00:04:08.891Z,175
2018-03-26T00:05:15.832Z,175
2018-03-26T00:06:23.043Z,175
2018-03-26T00:07:29.972Z,175
2018-03-26T00:08:36.906Z,175
2018-03-26T00:09:44.115Z,175
2018-03-26T00:10:51.047Z,175
2018-03-26T00:11:59.206Z,175
2018-03-26T00:13:06.131Z,175
2018-03-26T00:14:13.360Z,175
2018-03-26T00:15:20.565Z,176
2018-03-26T00:16:27.216Z,175
2018-03-26T00:17:34.424Z,175
2018-03-26T00:18:41.361Z,176
2018-03-26T00:19:48.019Z,175
2018-03-26T00:20:55.224Z,175
2018-03-26T00:22:02.175Z,175
2018-03-26T00:23:09.107Z,175
2018-03-26T00:24:16.033Z,175
2018-03-26T00:25:23.244Z,175
2018-03-26T00:26:30.166Z,175
2018-03-26T00:27:37.393Z,175
2018-03-26T00:28:44.583Z,175
2018-03-26T00:29:51.790Z,175
2018-03-26T00:30:58.752Z,175
2018-03-26T00:32:05.958Z,175
2018-03-26T00:33:12.888Z,175
2018-03-26T00:34:19.818Z,175
2018-03-26T00:35:27.020Z,175
2018-03-26T00:36:33.668Z,175
2018-03-26T00:37:40.599Z,175
2018-03-26T00:38:47.802Z,174
2018-03-26T00:39:53.904Z,175
2018-03-26T00:41:00.553Z,175
2018-03-26T00:42:07.490Z,175
2018-03-26T00:43:14.689Z,174
2018-03-26T00:44:21.890Z,174
2018-03-26T00:45:28.821Z,175
2018-03-26T00:46:36.024Z,174
2018-03-26T00:47:43.248Z,174
2018-03-26T00:48:50.450Z,174
2018-03-26T00:49:57.407Z,174
2018-03-26T00:51:04.605Z,174
2018-03-26T00:52:11.803Z,174
2018-03-26T00:53:19.003Z,174
2018-03-26T00:54:25.955Z,174
2018-03-26T00:55:33.095Z,174
2018-03-26T00:56:40.299Z,174
2018-03-26T00:57:47.514Z,174
2018-03-26T00:58:54.708Z,174
2018-03-26T01:00:01.918Z,174
2018-03-26T01:01:09.121Z,174
2018-03-26T01:02:16.321Z,174
2018-03-26T01:03:23.247Z,174
2018-03-26T01:04:30.455Z,174
2018-03-26T01:05:37.666Z,174
2018-03-26T01:06:44.863Z,174
2018-03-26T01:07:52.071Z,174
2018-03-26T01:09:13.944Z,174
2018-03-26T01:10:21.151Z,174
2018-03-26T01:11:28.352Z,174
2018-03-26T01:12:35.288Z,174
2018-03-26T01:13:42.491Z,174
2018-03-26T01:14:49.701Z,174
2018-03-26T01:15:56.918Z,174
2018-03-26T01:17:04.122Z,173
2018-03-26T01:18:11.340Z,174
2018-03-26T01:19:18.274Z,174
2018-03-26T01:20:25.474Z,174
2018-03-26T01:21:32.399Z,174
2018-03-26T01:22:39.599Z,174
2018-03-26T01:23:46.521Z,174
2018-03-26T01:24:53.455Z,174
2018-03-26T01:26:00.393Z,174
2018-03-26T01:27:07.607Z,174
2018-03-26T01:28:14.539Z,174
2018-03-26T01:29:21.464Z,174
2018-03-26T01:30:28.680Z,174
2018-03-26T01:31:35.624Z,174
2018-03-26T01:32:42.542Z,174
2018-03-26T01:33:49.204Z,174
2018-03-26T01:34:56.408Z,174
2018-03-26T01:36:03.336Z,174
2018-03-26T01:37:10.540Z,174
2018-03-26T01:38:17.479Z,174
2018-03-26T01:39:24.436Z,174
2018-03-26T01:40:31.650Z,173
2018-03-26T01:41:38.577Z,174
2018-03-26T01:42:45.785Z,174
2018-03-26T01:43:52.991Z,174
2018-03-26T01:45:00.212Z,174
2018-03-26T01:46:07.411Z,174
2018-03-26T01:47:14.076Z,174
2018-03-26T01:48:21.279Z,174
2018-03-26T01:49:28.498Z,174
2018-03-26T01:50:35.424Z,175
2018-03-26T01:51:42.347Z,174
2018-03-26T01:52:49.556Z,175
2018-03-26T01:53:56.484Z,175
2018-03-26T01:55:03.688Z,175
2018-03-26T01:56:10.349Z,175
2018-03-26T01:57:17.267Z,175
2018-03-26T01:58:24.476Z,175
2018-03-26T01:59:31.727Z,175
2018-03-26T02:00:38.656Z,175
2018-03-26T02:01:45.578Z,175
2018-03-26T02:02:52.786Z,175
2018-03-26T02:03:59.724Z,175
2018-03-26T02:05:06.934Z,175
2018-03-26T02:06:13.602Z,175
2018-03-26T02:07:21.509Z,175
2018-03-26T02:08:28.730Z,175
2018-03-26T02:09:35.933Z,175
2018-03-26T02:10:42.599Z,175
2018-03-26T02:11:49.240Z,175
2018-03-26T02:12:56.457Z,175
2018-03-26T02:14:03.152Z,176
2018-03-26T02:15:10.080Z,175
2018-03-26T02:16:17.012Z,176
2018-03-26T02:17:24.254Z,175
2018-03-26T02:18:31.469Z,175
2018-03-26T02:19:38.671Z,176
2018-03-26T02:20:45.602Z,175
2018-03-26T02:21:52.811Z,175
2018-03-26T02:23:00.022Z,176
2018-03-26T02:24:07.222Z,176
2018-03-26T02:25:14.427Z,176
2018-03-26T02:26:21.355Z,176
2018-03-26T02:27:28.565Z,176
2018-03-26T02:28:35.768Z,176
2018-03-26T02:29:43.008Z,176
2018-03-26T02:30:49.657Z,176
2018-03-26T02:31:56.879Z,176
2018-03-26T02:33:03.818Z,176
2018-03-26T02:34:10.761Z,175
2018-03-26T02:35:17.968Z,176
2018-03-26T02:36:24.914Z,176
2018-03-26T02:37:31.844Z,176
2018-03-26T02:38:38.768Z,176
2018-03-26T02:39:45.702Z,176
2018-03-26T02:40:52.907Z,176
2018-03-26T02:41:59.843Z,175
2018-03-26T02:43:06.905Z,176
2018-03-26T02:44:14.115Z,176
2018-03-26T02:45:21.316Z,175
2018-03-26T02:46:28.240Z,176
2018-03-26T02:47:36.306Z,176
2018-03-26T02:48:43.524Z,175
2018-03-26T02:49:50.451Z,176
2018-03-26T02:50:57.387Z,176
2018-03-26T02:52:04.596Z,176
2018-03-26T02:53:11.811Z,176
2018-03-26T02:54:19.015Z,175
2018-03-26T02:55:25.953Z,175
2018-03-26T02:56:33.153Z,175
2018-03-26T02:57:40.360Z,175
2018-03-26T02:58:47.028Z,175
2018-03-26T02:59:54.226Z,175
2018-03-26T03:01:01.168Z,175
2018-03-26T03:02:08.106Z,175
2018-03-26T03:03:15.319Z,175
2018-03-26T03:04:22.258Z,175
2018-03-26T03:05:29.178Z,175
2018-03-26T03:06:36.381Z,175
2018-03-26T03:07:43.594Z,175
2018-03-26T03:08:50.825Z,175
2018-03-26T03:09:57.772Z,175
2018-03-26T03:11:04.977Z,175
2018-03-26T03:12:12.181Z,175
2018-03-26T03:13:19.388Z,175
2018-03-26T03:14:26.352Z,174
2018-03-26T03:15:33.558Z,175
2018-03-26T03:16:40.756Z,175
2018-03-26T03:17:47.962Z,174
2018-03-26T03:18:54.870Z,175
2018-03-26T03:20:02.085Z,174
2018-03-26T03:21:09.291Z,175
2018-03-26T03:22:16.498Z,174
2018-03-26T03:23:23.702Z,174
2018-03-26T03:24:30.911Z,174
2018-03-26T03:25:38.126Z,174
2018-03-26T03:26:45.332Z,174
2018-03-26T03:27:52.543Z,174
2018-03-26T03:28:59.766Z,174
2018-03-26T03:30:06.419Z,174
2018-03-26T03:31:13.369Z,174
2018-03-26T03:32:20.576Z,174
2018-03-26T03:33:27.781Z,174
2018-03-26T03:34:34.996Z,174
2018-03-26T03:35:42.196Z,174
2018-03-26T03:36:49.126Z,174
2018-03-26T03:37:56.346Z,174
2018-03-26T03:39:03.268Z,174
2018-03-26T03:40:10.471Z,174
2018-03-26T03:41:17.124Z,174
2018-03-26T03:42:24.057Z,174
2018-03-26T03:43:30.988Z,173
2018-03-26T03:44:38.194Z,173
2018-03-26T03:45:44.842Z,174
2018-03-26T03:46:51.496Z,173
2018-03-26T03:47:58.153Z,174
2018-03-26T03:49:04.821Z,174
2018-03-26T03:50:11.770Z,174
2018-03-26T03:51:18.977Z,174
2018-03-26T03:52:25.649Z,174
2018-03-26T03:53:32.581Z,174
2018-03-26T03:54:39.806Z,174
2018-03-26T03:55:46.466Z,174
2018-03-26T03:56:53.676Z,174
2018-03-26T03:58:00.881Z,174
2018-03-26T03:59:08.081Z,174
2018-03-26T04:00:15.012Z,173
2018-03-26T04:01:21.934Z,173
2018-03-26T04:02:28.862Z,173
2018-03-26T04:03:36.071Z,173
2018-03-26T04:04:43.275Z,173
2018-03-26T04:05:50.483Z,174
2018-03-26T04:06:57.409Z,174
2018-03-26T04:08:04.341Z,174
2018-03-26T04:09:11.550Z,174
2018-03-26T04:10:18.760Z,174
2018-03-26T04:11:25.677Z,174
2018-03-26T04:12:32.319Z,174
2018-03-26T04:13:39.527Z,174
2018-03-26T04:14:46.199Z,174
2018-03-26T04:15:53.150Z,174
2018-03-26T04:17:00.092Z,174
2018-03-26T04:18:07.303Z,174
2018-03-26T04:19:14.230Z,174
2018-03-26T04:20:20.884Z,174
2018-03-26T04:21:28.090Z,174
2018-03-26T04:22:35.291Z,174
2018-03-26T04:23:42.225Z,174
2018-03-26T04:24:49.156Z,174
2018-03-26T04:25:56.084Z,174
2018-03-26T04:27:03.298Z,174
2018-03-26T04:28:10.226Z,174
2018-03-26T04:29:17.444Z,174
2018-03-26T04:30:24.377Z,174
2018-03-26T04:31:31.304Z,174
2018-03-26T04:32:37.959Z,174
2018-03-26T04:33:44.875Z,174
2018-03-26T04:34:52.096Z,174
2018-03-26T04:35:58.755Z,174
2018-03-26T04:37:05.958Z,174
2018-03-26T04:38:12.905Z,174
2018-03-26T04:39:19.852Z,174
2018-03-26T04:41:33.667Z,174
2018-03-26T04:42:40.596Z,174
2018-03-26T04:43:47.534Z,174
2018-03-26T04:44:54.185Z,174
2018-03-26T04:46:01.170Z,174
2018-03-26T04:47:08.100Z,174
2018-03-26T04:48:15.310Z,174
2018-03-26T04:49:22.515Z,174
2018-03-26T04:50:29.445Z,174
2018-03-26T04:51:36.654Z,174
2018-03-26T04:52:43.593Z,174
2018-03-26T04:53:50.516Z,174
2018-03-26T04:54:57.726Z,174
2018-03-26T04:56:04.646Z,173
2018-03-26T04:57:11.856Z,174
2018-03-26T04:58:19.062Z,174
2018-03-26T04:59:26.267Z,174
2018-03-26T05:00:33.492Z,174
2018-03-26T05:01:40.697Z,174
2018-03-26T05:02:47.908Z,174
2018-03-26T05:03:55.112Z,174
2018-03-26T05:05:02.331Z,174
2018-03-26T05:06:09.545Z,174
2018-03-26T05:07:16.470Z,174
2018-03-26T05:08:23.690Z,174
2018-03-26T05:09:30.341Z,174
2018-03-26T05:10:37.000Z,173
2018-03-26T05:11:43.931Z,174
2018-03-26T05:12:50.585Z,173
2018-03-26T05:13:57.791Z,173
2018-03-26T05:15:04.991Z,173
2018-03-26T05:16:11.917Z,173
2018-03-26T05:17:18.846Z,173
2018-03-26T05:18:26.046Z,174
2018-03-26T05:19:33.255Z,173
2018-03-26T05:20:40.462Z,173
2018-03-26T05:21:47.669Z,173
2018-03-26T05:22:54.867Z,173
2018-03-26T05:24:01.803Z,173
2018-03-26T05:25:08.728Z,173
2018-03-26T05:26:15.655Z,173
2018-03-26T05:27:22.608Z,173
2018-03-26T05:28:29.829Z,173
2018-03-26T05:29:36.754Z,173
2018-03-26T05:30:43.400Z,173
2018-03-26T05:31:50.617Z,173
2018-03-26T05:32:57.551Z,173
2018-03-26T05:34:04.205Z,173
2018-03-26T05:35:11.409Z,173
2018-03-26T05:36:18.334Z,173
2018-03-26T05:37:25.544Z,173
2018-03-26T05:38:32.491Z,173
2018-03-26T05:39:39.417Z,173
2018-03-26T05:40:46.367Z,173
2018-03-26T05:41:53.294Z,173
2018-03-26T05:43:00.501Z,173
2018-03-26T05:44:07.420Z,173
2018-03-26T05:45:14.628Z,173
2018-03-26T05:46:21.839Z,173
2018-03-26T05:47:28.762Z,173
2018-03-26T05:48:35.413Z,173
2018-03-26T05:49:42.351Z,172
2018-03-26T05:50:49.279Z,173
2018-03-26T05:51:56.205Z,173
2018-03-26T05:53:03.413Z,173
2018-03-26T05:54:10.653Z,173
2018-03-26T05:55:17.585Z,173
2018-03-26T05:56:25.193Z,173
2018-03-26T05:57:32.119Z,173
2018-03-26T05:58:39.327Z,173
2018-03-26T05:59:46.546Z,173
2018-03-26T06:00:53.508Z,173
2018-03-26T06:02:00.720Z,173
2018-03-26T06:03:07.647Z,173
2018-03-26T06:04:14.858Z,173
2018-03-26T06:05:21.517Z,173
2018-03-26T06:06:28.764Z,173
2018-03-26T06:07:35.965Z,173
2018-03-26T06:08:42.890Z,173
2018-03-26T06:09:49.822Z,172
2018-03-26T06:10:57.026Z,173
2018-03-26T06:12:04.245Z,172
2018-03-26T06:13:11.450Z,172
2018-03-26T06:14:18.381Z,172
2018-03-26T06:15:25.308Z,173
2018-03-26T06:16:32.512Z,172
2018-03-26T06:17:39.446Z,172
2018-03-26T06:18:46.387Z,172
2018-03-26T06:19:53.597Z,172
2018-03-26T06:21:00.518Z,172
2018-03-26T06:22:07.731Z,172
2018-03-26T06:23:14.956Z,172
2018-03-26T06:24:22.165Z,172
2018-03-26T06:25:29.091Z,172
2018-03-26T06:26:35.748Z,172
2018-03-26T06:27:42.409Z,172
2018-03-26T06:28:49.063Z,172
2018-03-26T06:29:55.711Z,172
2018-03-26T06:31:02.911Z,172
2018-03-26T06:32:10.114Z,172
2018-03-26T06:33:17.320Z,172
2018-03-26T06:34:24.249Z,172
2018-03-26T06:35:32.062Z,172
2018-03-26T06:36:38.725Z,172
2018-03-26T06:37:45.384Z,172
2018-03-26T06:38:52.581Z,171
2018-03-26T06:39:59.513Z,171
2018-03-26T06:41:06.454Z,171
2018-03-26T06:42:13.708Z,171
2018-03-26T06:43:20.920Z,171
2018-03-26T06:44:28.133Z,171
2018-03-26T06:45:35.338Z,171
2018-03-26T06:46:42.781Z,171
2018-03-26T06:47:50.056Z,171
2018-03-26T06:48:57.270Z,171
2018-03-26T06:50:04.475Z,171
2018-03-26T06:51:11.680Z,171
2018-03-26T06:52:18.890Z,170
2018-03-26T06:53:25.535Z,170
2018-03-26T06:54:32.743Z,170
2018-03-26T06:55:39.670Z,170
2018-03-26T06:56:46.797Z,170
2018-03-26T06:57:53.999Z,170
2018-03-26T06:59:01.200Z,170
2018-03-26T07:00:08.419Z,170
2018-03-26T07:01:15.629Z,170
2018-03-26T07:02:22.991Z,170
2018-03-26T07:03:30.196Z,170
2018-03-26T07:04:37.399Z,170
2018-03-26T07:05:44.914Z,169
2018-03-26T07:06:52.139Z,170
2018-03-26T07:07:59.345Z,170
2018-03-26T07:09:06.557Z,169
2018-03-26T07:10:13.766Z,169
2018-03-26T07:11:20.728Z,169
2018-03-26T07:12:27.846Z,169
2018-03-26T07:13:34.596Z,169
2018-03-26T07:14:41.474Z,169
2018-03-26T07:15:48.767Z,169
2018-03-26T07:16:55.701Z,169
2018-03-26T07:18:02.637Z,169
2018-03-26T07:19:09.575Z,168
2018-03-26T07:20:16.788Z,168
2018-03-26T07:21:23.712Z,168
2018-03-26T07:22:30.640Z,168
2018-03-26T07:23:37.565Z,168
2018-03-26T07:24:44.507Z,168
2018-03-26T07:25:51.707Z,167
2018-03-26T07:26:58.639Z,167
2018-03-26T07:28:05.289Z,167
2018-03-26T07:29:12.493Z,167
2018-03-26T07:30:19.424Z,167
2018-03-26T07:31:25.845Z,167
2018-03-26T07:32:32.772Z,167
2018-03-26T07:33:39.694Z,166
2018-03-26T07:34:46.899Z,167
2018-03-26T07:35:54.112Z,167
2018-03-26T07:37:01.048Z,167
2018-03-26T07:38:08.254Z,167
2018-03-26T07:39:15.183Z,166
2018-03-26T07:40:22.122Z,166
2018-03-26T07:41:29.332Z,166
2018-03-26T07:42:36.535Z,166
2018-03-26T07:43:43.188Z,166
2018-03-26T07:44:50.404Z,165
2018-03-26T07:45:57.931Z,165
2018-03-26T07:47:04.874Z,165
2018-03-26T07:48:11.528Z,165
2018-03-26T07:49:18.454Z,165
2018-03-26T07:50:25.386Z,165
2018-03-26T07:51:32.313Z,165
2018-03-26T07:52:39.239Z,164
2018-03-26T07:53:46.195Z,165
2018-03-26T07:54:53.131Z,164
2018-03-26T07:55:59.787Z,164
2018-03-26T07:57:06.448Z,164
2018-03-26T07:58:13.403Z,164
2018-03-26T07:59:20.055Z,164
2018-03-26T08:00:27.265Z,164
2018-03-26T08:01:34.195Z,164
2018-03-26T08:02:40.851Z,163
2018-03-26T08:03:48.052Z,164
2018-03-26T08:04:54.439Z,163
2018-03-26T08:06:01.376Z,163
2018-03-26T08:07:08.605Z,163
2018-03-26T08:08:15.818Z,163
2018-03-26T08:09:22.747Z,163
2018-03-26T08:10:29.680Z,163
2018-03-26T08:11:36.903Z,163
2018-03-26T08:12:43.848Z,163
2018-03-26T08:13:51.052Z,163
2018-03-26T08:14:58.001Z,163
2018-03-26T08:16:05.206Z,162
2018-03-26T08:17:12.138Z,162
2018-03-26T08:18:19.633Z,162
2018-03-26T08:19:26.582Z,162
2018-03-26T08:20:33.787Z,163
2018-03-26T08:21:40.715Z,162
2018-03-26T08:22:47.927Z,163
2018-03-26T08:23:55.132Z,163
2018-03-26T08:25:02.340Z,162
2018-03-26T08:26:09.548Z,163
2018-03-26T08:27:16.956Z,163
2018-03-26T08:28:23.914Z,162
2018-03-26T08:29:30.842Z,162
2018-03-26T08:30:37.771Z,162
2018-03-26T08:31:44.974Z,163
2018-03-26T08:32:52.184Z,162
2018-03-26T08:33:59.103Z,163
2018-03-26T08:35:06.053Z,162
2018-03-26T08:36:13.270Z,162
2018-03-26T08:37:20.209Z,161
2018-03-26T08:38:27.144Z,161
2018-03-26T08:39:34.076Z,162
2018-03-26T08:40:41.032Z,162
2018-03-26T08:41:48.239Z,162
2018-03-26T08:42:54.898Z,162
2018-03-26T08:44:01.829Z,162
2018-03-26T08:45:09.049Z,162
2018-03-26T08:46:15.701Z,161
2018-03-26T08:47:22.393Z,161
2018-03-26T08:48:29.606Z,161
2018-03-26T08:49:36.544Z,161
2018-03-26T08:50:43.749Z,161
2018-03-26T08:51:50.702Z,161
2018-03-26T08:52:57.360Z,162
2018-03-26T08:54:04.329Z,162
2018-03-26T08:55:11.537Z,162
2018-03-26T08:56:18.919Z,162
2018-03-26T08:57:25.800Z,162
2018-03-26T08:58:32.734Z,162
2018-03-26T22:00:06.213Z,200
2018-03-26T22:01:13.158Z,201
2018-03-26T22:02:20.359Z,201
2018-03-26T22:03:27.562Z,201
2018-03-26T22:04:34.661Z,202
2018-03-26T22:05:42.041Z,201
2018-03-26T22:06:48.972Z,202
2018-03-26T22:07:56.177Z,201
2018-03-26T22:09:03.112Z,201
2018-03-26T22:10:10.311Z,201
2018-03-26T22:11:17.521Z,201
2018-03-26T22:12:24.450Z,201
2018-03-26T22:13:30.838Z,201
2018-03-26T22:14:38.083Z,201
2018-03-26T22:15:45.011Z,201
2018-03-26T22:16:52.218Z,201
2018-03-26T22:17:59.150Z,201
2018-03-26T22:19:06.344Z,201
2018-03-26T22:20:13.549Z,201
2018-03-26T22:21:20.956Z,201
2018-03-26T22:22:28.156Z,201
2018-03-26T22:23:35.367Z,201
2018-03-26T22:24:42.566Z,201
2018-03-26T22:25:49.762Z,201
2018-03-26T22:26:56.984Z,201
2018-03-26T22:28:04.184Z,201
2018-03-26T22:29:12.126Z,201
2018-03-26T22:30:18.498Z,201
2018-03-26T22:31:25.424Z,200
2018-03-26T22:32:32.356Z,200
2018-03-26T22:33:39.562Z,201
2018-03-26T22:34:46.533Z,201
2018-03-26T22:35:54.258Z,201
2018-03-26T22:37:01.525Z,200
2018-03-26T22:38:08.791Z,201
2018-03-26T22:39:15.791Z,201
2018-03-26T22:40:22.999Z,200
2018-03-26T22:41:30.046Z,200
2018-03-26T22:42:36.756Z,200
2018-03-26T22:43:44.012Z,200
2018-03-26T22:44:51.292Z,200
2018-03-26T22:45:58.720Z,200
2018-03-26T22:47:05.982Z,200
2018-03-26T22:48:13.248Z,200
2018-03-26T22:49:20.508Z,201
2018-03-26T22:50:27.775Z,201
2018-03-26T22:51:35.045Z,200
2018-03-26T22:52:42.317Z,200
2018-03-26T22:53:49.581Z,200
2018-03-26T22:54:56.568Z,200
2018-03-26T22:56:03.826Z,200
2018-03-26T22:57:10.751Z,200
2018-03-26T22:58:17.737Z,200
2018-03-26T22:59:24.708Z,200
2018-03-26T23:00:31.427Z,200
2018-03-26T23:01:38.696Z,200
2018-03-26T23:02:45.957Z,200
2018-03-26T23:03:53.173Z,200
2018-03-26T23:05:00.432Z,200
2018-03-26T23:06:07.696Z,200
2018-03-26T23:07:14.718Z,200
2018-03-26T23:08:21.980Z,200
2018-03-26T23:09:28.682Z,200
2018-03-26T23:10:35.938Z,200
2018-03-26T23:11:43.196Z,200
2018-03-26T23:12:50.181Z,200
2018-03-26T23:13:57.155Z,200
2018-03-26T23:15:04.145Z,200
2018-03-26T23:16:10.560Z,200
2018-03-26T23:17:18.000Z,200
2018-03-26T23:18:24.984Z,200
2018-03-26T23:19:32.004Z,200
2018-03-26T23:20:39.258Z,200
2018-03-26T23:21:46.238Z,200
2018-03-26T23:22:52.928Z,200
2018-03-26T23:24:00.200Z,200
2018-03-26T23:25:06.899Z,200
2018-03-26T23:26:14.149Z,200
2018-03-26T23:27:21.113Z,200
2018-03-26T23:28:28.100Z,200
2018-03-26T23:29:35.162Z,200
2018-03-26T23:30:42.546Z,200
2018-03-26T23:31:49.565Z,200
2018-03-26T23:32:56.818Z,200
2018-03-26T23:34:04.063Z,200
2018-03-26T23:35:11.327Z,200
2018-03-26T23:36:18.382Z,201
2018-03-26T23:37:25.124Z,201
2018-03-26T23:38:32.381Z,201
2018-03-26T23:39:39.624Z,201
2018-03-26T23:40:46.318Z,201
2018-03-26T23:41:54.152Z,201
2018-03-26T23:43:01.127Z,201
2018-03-26T23:44:08.091Z,201
2018-03-26T23:45:14.496Z,200
2018-03-26T23:46:21.740Z,201
2018-03-26T23:47:28.717Z,200
2018-03-26T23:48:35.956Z,201
2018-03-26T23:49:43.202Z,201
2018-03-26T23:50:50.158Z,201
2018-03-26T23:51:57.404Z,201
2018-03-26T23:53:04.379Z,201
2018-03-26T23:54:11.611Z,201
2018-03-26T23:55:18.850Z,201
2018-03-26T23:56:25.531Z,201
2018-03-26T23:57:32.496Z,201
2018-03-26T23:58:39.454Z,200
2018-03-26T23:59:46.416Z,200
